sensor_id;sensor_type;location;lat;lon;timestamp;P1;durP1;ratioP1;P2;durP2;ratioP2
10811;SDS011;5458;51.496;7.334;2023-05-07T00:01:48;12.68;;;11.38;;
10811;SDS011;5458;51.496;7.334;2023-05-07T00:04:14;13.25;;;11.93;;
10811;SDS011;5458;51.496;7.334;2023-05-07T00:06:39;13.02;;;11.73;;
10811;SDS011;5458;51.496;7.334;2023-05-07T00:09:05;14.98;;;12.65;;
10811;SDS011;5458;51.496;7.334;2023-05-07T00:11:31;13.60;;;12.20;;
10811;SDS011;5458;51.496;7.334;2023-05-07T00:13:57;14.10;;;12.15;;
10811;SDS011;5458;51.496;7.334;2023-05-07T00:16:23;14.40;;;11.55;;
10811;SDS011;5458;51.496;7.334;2023-05-07T00:18:48;16.42;;;14.15;;
10811;SDS011;5458;51.496;7.334;2023-05-07T00:21:14;16.08;;;12.68;;
10811;SDS011;5458;51.496;7.334;2023-05-07T00:23:39;13.38;;;12.18;;
10811;SDS011;5458;51.496;7.334;2023-05-07T00:26:05;14.73;;;13.32;;
10811;SDS011;5458;51.496;7.334;2023-05-07T00:28:30;17.02;;;14.02;;
10811;SDS011;5458;51.496;7.334;2023-05-07T00:30:56;14.02;;;12.73;;
10811;SDS011;5458;51.496;7.334;2023-05-07T00:33:22;14.43;;;12.93;;
10811;SDS011;5458;51.496;7.334;2023-05-07T00:35:47;14.82;;;13.32;;
10811;SDS011;5458;51.496;7.334;2023-05-07T00:38:13;14.60;;;13.10;;
10811;SDS011;5458;51.496;7.334;2023-05-07T00:40:39;14.55;;;13.25;;
10811;SDS011;5458;51.496;7.334;2023-05-07T00:43:05;14.70;;;13.25;;
10811;SDS011;5458;51.496;7.334;2023-05-07T00:45:31;14.23;;;12.93;;
10811;SDS011;5458;51.496;7.334;2023-05-07T00:47:59;17.20;;;13.95;;
10811;SDS011;5458;51.496;7.334;2023-05-07T00:50:26;14.90;;;13.32;;
10811;SDS011;5458;51.496;7.334;2023-05-07T00:52:53;15.32;;;13.20;;
10811;SDS011;5458;51.496;7.334;2023-05-07T00:55:19;15.00;;;13.45;;
10811;SDS011;5458;51.496;7.334;2023-05-07T00:57:46;16.08;;;14.50;;
10811;SDS011;5458;51.496;7.334;2023-05-07T01:00:12;16.77;;;15.10;;
10811;SDS011;5458;51.496;7.334;2023-05-07T01:02:38;16.77;;;14.13;;
10811;SDS011;5458;51.496;7.334;2023-05-07T01:05:05;17.88;;;16.05;;
10811;SDS011;5458;51.496;7.334;2023-05-07T01:07:32;16.73;;;14.90;;
10811;SDS011;5458;51.496;7.334;2023-05-07T01:09:59;16.00;;;14.40;;
10811;SDS011;5458;51.496;7.334;2023-05-07T01:12:25;15.82;;;14.25;;
10811;SDS011;5458;51.496;7.334;2023-05-07T01:14:52;15.27;;;13.73;;
10811;SDS011;5458;51.496;7.334;2023-05-07T01:17:18;16.35;;;14.75;;
10811;SDS011;5458;51.496;7.334;2023-05-07T01:19:44;16.85;;;15.05;;
10811;SDS011;5458;51.496;7.334;2023-05-07T01:22:10;16.45;;;14.85;;
10811;SDS011;5458;51.496;7.334;2023-05-07T01:24:36;15.70;;;14.20;;
10811;SDS011;5458;51.496;7.334;2023-05-07T01:27:03;15.77;;;14.38;;
10811;SDS011;5458;51.496;7.334;2023-05-07T01:29:29;16.25;;;14.43;;
10811;SDS011;5458;51.496;7.334;2023-05-07T01:31:56;15.88;;;14.27;;
10811;SDS011;5458;51.496;7.334;2023-05-07T01:34:24;17.63;;;15.50;;
10811;SDS011;5458;51.496;7.334;2023-05-07T01:36:52;16.25;;;14.52;;
10811;SDS011;5458;51.496;7.334;2023-05-07T01:39:20;15.48;;;14.00;;
10811;SDS011;5458;51.496;7.334;2023-05-07T01:41:54;16.83;;;15.18;;
10811;SDS011;5458;51.496;7.334;2023-05-07T01:44:21;15.95;;;14.43;;
10811;SDS011;5458;51.496;7.334;2023-05-07T01:46:47;15.93;;;14.27;;
10811;SDS011;5458;51.496;7.334;2023-05-07T01:49:13;16.70;;;15.07;;
10811;SDS011;5458;51.496;7.334;2023-05-07T01:51:39;16.45;;;14.75;;
10811;SDS011;5458;51.496;7.334;2023-05-07T01:54:05;15.65;;;14.23;;
10811;SDS011;5458;51.496;7.334;2023-05-07T01:56:31;15.70;;;14.27;;
10811;SDS011;5458;51.496;7.334;2023-05-07T01:58:57;14.90;;;13.20;;
10811;SDS011;5458;51.496;7.334;2023-05-07T02:01:22;14.88;;;13.43;;
10811;SDS011;5458;51.496;7.334;2023-05-07T02:03:48;15.88;;;14.23;;
10811;SDS011;5458;51.496;7.334;2023-05-07T02:06:14;14.95;;;13.48;;
10811;SDS011;5458;51.496;7.334;2023-05-07T02:08:40;15.55;;;13.75;;
10811;SDS011;5458;51.496;7.334;2023-05-07T02:11:05;15.15;;;13.13;;
10811;SDS011;5458;51.496;7.334;2023-05-07T02:13:31;15.50;;;13.73;;
10811;SDS011;5458;51.496;7.334;2023-05-07T02:15:59;15.55;;;13.95;;
10811;SDS011;5458;51.496;7.334;2023-05-07T02:18:25;15.98;;;14.35;;
10811;SDS011;5458;51.496;7.334;2023-05-07T02:20:50;15.07;;;13.60;;
10811;SDS011;5458;51.496;7.334;2023-05-07T02:23:16;16.10;;;14.18;;
10811;SDS011;5458;51.496;7.334;2023-05-07T02:25:41;15.20;;;13.70;;
10811;SDS011;5458;51.496;7.334;2023-05-07T02:28:07;15.13;;;13.63;;
10811;SDS011;5458;51.496;7.334;2023-05-07T02:30:32;15.70;;;14.10;;
10811;SDS011;5458;51.496;7.334;2023-05-07T02:32:58;14.98;;;13.57;;
10811;SDS011;5458;51.496;7.334;2023-05-07T02:35:24;15.95;;;14.25;;
10811;SDS011;5458;51.496;7.334;2023-05-07T02:37:50;15.43;;;13.88;;
10811;SDS011;5458;51.496;7.334;2023-05-07T02:40:16;14.88;;;13.38;;
10811;SDS011;5458;51.496;7.334;2023-05-07T02:42:41;15.35;;;13.75;;
10811;SDS011;5458;51.496;7.334;2023-05-07T02:45:07;15.90;;;14.25;;
10811;SDS011;5458;51.496;7.334;2023-05-07T02:47:33;16.77;;;15.07;;
10811;SDS011;5458;51.496;7.334;2023-05-07T02:49:59;16.63;;;15.05;;
10811;SDS011;5458;51.496;7.334;2023-05-07T02:52:24;16.80;;;15.20;;
10811;SDS011;5458;51.496;7.334;2023-05-07T02:54:50;16.75;;;14.90;;
10811;SDS011;5458;51.496;7.334;2023-05-07T02:57:16;16.33;;;14.63;;
10811;SDS011;5458;51.496;7.334;2023-05-07T02:59:41;17.33;;;15.65;;
10811;SDS011;5458;51.496;7.334;2023-05-07T03:02:07;18.80;;;16.55;;
10811;SDS011;5458;51.496;7.334;2023-05-07T03:04:33;17.42;;;15.60;;
10811;SDS011;5458;51.496;7.334;2023-05-07T03:06:58;18.35;;;16.10;;
10811;SDS011;5458;51.496;7.334;2023-05-07T03:09:24;19.35;;;16.13;;
10811;SDS011;5458;51.496;7.334;2023-05-07T03:11:49;17.40;;;15.73;;
10811;SDS011;5458;51.496;7.334;2023-05-07T03:14:15;18.30;;;16.60;;
10811;SDS011;5458;51.496;7.334;2023-05-07T03:16:40;16.90;;;15.15;;
10811;SDS011;5458;51.496;7.334;2023-05-07T03:19:06;17.88;;;16.17;;
10811;SDS011;5458;51.496;7.334;2023-05-07T03:21:32;19.80;;;17.98;;
10811;SDS011;5458;51.496;7.334;2023-05-07T03:23:58;19.27;;;17.40;;
10811;SDS011;5458;51.496;7.334;2023-05-07T03:26:24;18.67;;;16.65;;
10811;SDS011;5458;51.496;7.334;2023-05-07T03:28:50;19.02;;;17.25;;
10811;SDS011;5458;51.496;7.334;2023-05-07T03:31:16;19.10;;;17.20;;
10811;SDS011;5458;51.496;7.334;2023-05-07T03:33:51;18.98;;;17.02;;
10811;SDS011;5458;51.496;7.334;2023-05-07T03:36:17;19.27;;;17.38;;
10811;SDS011;5458;51.496;7.334;2023-05-07T03:38:42;19.45;;;17.38;;
10811;SDS011;5458;51.496;7.334;2023-05-07T03:41:08;19.48;;;17.48;;
10811;SDS011;5458;51.496;7.334;2023-05-07T03:43:34;19.48;;;17.42;;
10811;SDS011;5458;51.496;7.334;2023-05-07T03:45:59;19.50;;;17.60;;
10811;SDS011;5458;51.496;7.334;2023-05-07T03:48:25;20.08;;;18.00;;
10811;SDS011;5458;51.496;7.334;2023-05-07T03:50:51;20.40;;;18.38;;
10811;SDS011;5458;51.496;7.334;2023-05-07T03:53:16;19.98;;;17.98;;
10811;SDS011;5458;51.496;7.334;2023-05-07T03:55:42;20.50;;;18.40;;
10811;SDS011;5458;51.496;7.334;2023-05-07T03:58:07;20.90;;;18.75;;
10811;SDS011;5458;51.496;7.334;2023-05-07T04:00:33;21.52;;;18.58;;
10811;SDS011;5458;51.496;7.334;2023-05-07T04:03:03;20.73;;;18.55;;
10811;SDS011;5458;51.496;7.334;2023-05-07T04:05:29;20.00;;;17.90;;
10811;SDS011;5458;51.496;7.334;2023-05-07T04:07:55;18.80;;;16.80;;
10811;SDS011;5458;51.496;7.334;2023-05-07T04:10:21;19.38;;;17.38;;
10811;SDS011;5458;51.496;7.334;2023-05-07T04:12:46;19.20;;;17.20;;
10811;SDS011;5458;51.496;7.334;2023-05-07T04:15:12;18.70;;;16.88;;
10811;SDS011;5458;51.496;7.334;2023-05-07T04:17:38;20.67;;;17.35;;
10811;SDS011;5458;51.496;7.334;2023-05-07T04:20:03;19.13;;;17.23;;
10811;SDS011;5458;51.496;7.334;2023-05-07T04:22:32;19.63;;;16.90;;
10811;SDS011;5458;51.496;7.334;2023-05-07T04:24:57;19.30;;;17.42;;
10811;SDS011;5458;51.496;7.334;2023-05-07T04:27:23;18.80;;;17.00;;
10811;SDS011;5458;51.496;7.334;2023-05-07T04:29:48;19.10;;;17.13;;
10811;SDS011;5458;51.496;7.334;2023-05-07T04:32:14;17.77;;;15.80;;
10811;SDS011;5458;51.496;7.334;2023-05-07T04:34:40;18.45;;;16.65;;
10811;SDS011;5458;51.496;7.334;2023-05-07T04:37:05;19.27;;;16.95;;
10811;SDS011;5458;51.496;7.334;2023-05-07T04:39:32;17.48;;;15.68;;
10811;SDS011;5458;51.496;7.334;2023-05-07T04:42:00;18.13;;;16.20;;
10811;SDS011;5458;51.496;7.334;2023-05-07T04:44:25;18.02;;;16.27;;
10811;SDS011;5458;51.496;7.334;2023-05-07T04:46:51;17.52;;;15.73;;
10811;SDS011;5458;51.496;7.334;2023-05-07T04:49:16;17.45;;;15.65;;
10811;SDS011;5458;51.496;7.334;2023-05-07T04:51:42;15.70;;;14.13;;
10811;SDS011;5458;51.496;7.334;2023-05-07T04:54:08;16.08;;;14.45;;
10811;SDS011;5458;51.496;7.334;2023-05-07T04:56:33;16.45;;;14.80;;
10811;SDS011;5458;51.496;7.334;2023-05-07T04:58:59;15.00;;;13.60;;
10811;SDS011;5458;51.496;7.334;2023-05-07T05:01:24;13.68;;;12.27;;
10811;SDS011;5458;51.496;7.334;2023-05-07T05:03:50;14.73;;;13.13;;
10811;SDS011;5458;51.496;7.334;2023-05-07T05:06:16;14.05;;;12.50;;
10811;SDS011;5458;51.496;7.334;2023-05-07T05:08:41;13.15;;;11.93;;
10811;SDS011;5458;51.496;7.334;2023-05-07T05:11:07;13.25;;;11.95;;
10811;SDS011;5458;51.496;7.334;2023-05-07T05:13:32;12.95;;;11.65;;
10811;SDS011;5458;51.496;7.334;2023-05-07T05:15:58;12.20;;;11.10;;
10811;SDS011;5458;51.496;7.334;2023-05-07T05:18:23;12.73;;;11.45;;
10811;SDS011;5458;51.496;7.334;2023-05-07T05:20:49;12.38;;;11.18;;
10811;SDS011;5458;51.496;7.334;2023-05-07T05:23:16;11.23;;;10.30;;
10811;SDS011;5458;51.496;7.334;2023-05-07T05:25:42;11.00;;;10.00;;
10811;SDS011;5458;51.496;7.334;2023-05-07T05:28:08;10.18;;;9.27;;
10811;SDS011;5458;51.496;7.334;2023-05-07T05:30:33;10.27;;;9.38;;
10811;SDS011;5458;51.496;7.334;2023-05-07T05:32:59;11.90;;;10.00;;
10811;SDS011;5458;51.496;7.334;2023-05-07T05:35:25;9.75;;;8.82;;
10811;SDS011;5458;51.496;7.334;2023-05-07T05:37:50;8.52;;;7.82;;
10811;SDS011;5458;51.496;7.334;2023-05-07T05:40:16;7.70;;;7.10;;
10811;SDS011;5458;51.496;7.334;2023-05-07T05:42:41;7.05;;;6.38;;
10811;SDS011;5458;51.496;7.334;2023-05-07T05:45:07;6.28;;;5.80;;
10811;SDS011;5458;51.496;7.334;2023-05-07T05:47:33;7.70;;;6.05;;
10811;SDS011;5458;51.496;7.334;2023-05-07T05:49:59;7.47;;;6.28;;
10811;SDS011;5458;51.496;7.334;2023-05-07T05:52:24;6.85;;;6.22;;
10811;SDS011;5458;51.496;7.334;2023-05-07T05:54:50;6.43;;;5.93;;
10811;SDS011;5458;51.496;7.334;2023-05-07T05:57:15;6.95;;;6.22;;
10811;SDS011;5458;51.496;7.334;2023-05-07T05:59:41;6.45;;;5.22;;
10811;SDS011;5458;51.496;7.334;2023-05-07T06:02:07;6.30;;;5.63;;
10811;SDS011;5458;51.496;7.334;2023-05-07T06:04:33;6.03;;;5.63;;
10811;SDS011;5458;51.496;7.334;2023-05-07T06:06:58;5.78;;;5.30;;
10811;SDS011;5458;51.496;7.334;2023-05-07T06:09:24;6.15;;;4.75;;
10811;SDS011;5458;51.496;7.334;2023-05-07T06:11:49;6.75;;;5.32;;
10811;SDS011;5458;51.496;7.334;2023-05-07T06:14:15;5.75;;;5.22;;
10811;SDS011;5458;51.496;7.334;2023-05-07T06:16:40;5.13;;;4.65;;
10811;SDS011;5458;51.496;7.334;2023-05-07T06:19:06;5.68;;;5.10;;
10811;SDS011;5458;51.496;7.334;2023-05-07T06:21:32;5.70;;;5.18;;
10811;SDS011;5458;51.496;7.334;2023-05-07T06:23:57;5.90;;;5.30;;
10811;SDS011;5458;51.496;7.334;2023-05-07T06:26:23;7.60;;;5.28;;
10811;SDS011;5458;51.496;7.334;2023-05-07T06:28:49;5.55;;;5.15;;
10811;SDS011;5458;51.496;7.334;2023-05-07T06:31:15;6.88;;;5.50;;
10811;SDS011;5458;51.496;7.334;2023-05-07T06:33:42;4.95;;;4.55;;
10811;SDS011;5458;51.496;7.334;2023-05-07T06:36:09;8.82;;;5.18;;
10811;SDS011;5458;51.496;7.334;2023-05-07T06:38:34;5.82;;;5.35;;
10811;SDS011;5458;51.496;7.334;2023-05-07T06:41:00;6.10;;;4.82;;
10811;SDS011;5458;51.496;7.334;2023-05-07T06:43:25;5.18;;;4.65;;
10811;SDS011;5458;51.496;7.334;2023-05-07T06:45:51;5.22;;;4.72;;
10811;SDS011;5458;51.496;7.334;2023-05-07T06:48:17;5.50;;;4.93;;
10811;SDS011;5458;51.496;7.334;2023-05-07T06:50:42;5.47;;;4.60;;
10811;SDS011;5458;51.496;7.334;2023-05-07T06:53:08;5.05;;;4.53;;
10811;SDS011;5458;51.496;7.334;2023-05-07T06:55:33;5.25;;;4.78;;
10811;SDS011;5458;51.496;7.334;2023-05-07T06:57:59;6.97;;;5.00;;
10811;SDS011;5458;51.496;7.334;2023-05-07T07:00:26;5.65;;;4.82;;
10811;SDS011;5458;51.496;7.334;2023-05-07T07:02:53;5.65;;;4.82;;
10811;SDS011;5458;51.496;7.334;2023-05-07T07:05:19;6.28;;;4.78;;
10811;SDS011;5458;51.496;7.334;2023-05-07T07:07:45;7.65;;;5.60;;
10811;SDS011;5458;51.496;7.334;2023-05-07T07:10:17;5.30;;;4.80;;
10811;SDS011;5458;51.496;7.334;2023-05-07T07:12:46;5.60;;;5.03;;
10811;SDS011;5458;51.496;7.334;2023-05-07T07:15:12;6.53;;;4.97;;
10811;SDS011;5458;51.496;7.334;2023-05-07T07:17:38;6.55;;;5.80;;
10811;SDS011;5458;51.496;7.334;2023-05-07T07:20:04;5.38;;;4.90;;
10811;SDS011;5458;51.496;7.334;2023-05-07T07:22:30;5.00;;;4.53;;
10811;SDS011;5458;51.496;7.334;2023-05-07T07:24:56;8.57;;;5.40;;
10811;SDS011;5458;51.496;7.334;2023-05-07T07:27:21;6.07;;;5.15;;
10811;SDS011;5458;51.496;7.334;2023-05-07T07:29:47;6.20;;;5.20;;
10811;SDS011;5458;51.496;7.334;2023-05-07T07:32:12;7.45;;;5.00;;
10811;SDS011;5458;51.496;7.334;2023-05-07T07:34:38;5.30;;;4.80;;
10811;SDS011;5458;51.496;7.334;2023-05-07T07:37:03;5.88;;;4.95;;
10811;SDS011;5458;51.496;7.334;2023-05-07T07:39:33;6.53;;;5.28;;
10811;SDS011;5458;51.496;7.334;2023-05-07T07:42:00;6.28;;;5.10;;
10811;SDS011;5458;51.496;7.334;2023-05-07T07:44:26;5.68;;;5.18;;
10811;SDS011;5458;51.496;7.334;2023-05-07T07:46:53;5.70;;;5.20;;
10811;SDS011;5458;51.496;7.334;2023-05-07T07:49:18;5.80;;;4.68;;
10811;SDS011;5458;51.496;7.334;2023-05-07T07:51:44;5.82;;;4.35;;
10811;SDS011;5458;51.496;7.334;2023-05-07T07:54:10;8.18;;;4.72;;
10811;SDS011;5458;51.496;7.334;2023-05-07T07:56:36;6.25;;;5.00;;
10811;SDS011;5458;51.496;7.334;2023-05-07T07:59:01;5.22;;;4.47;;
10811;SDS011;5458;51.496;7.334;2023-05-07T08:01:29;4.43;;;4.03;;
10811;SDS011;5458;51.496;7.334;2023-05-07T08:03:55;4.68;;;4.28;;
10811;SDS011;5458;51.496;7.334;2023-05-07T08:06:22;4.90;;;4.43;;
10811;SDS011;5458;51.496;7.334;2023-05-07T08:08:48;6.18;;;5.57;;
10811;SDS011;5458;51.496;7.334;2023-05-07T08:11:13;6.50;;;4.93;;
10811;SDS011;5458;51.496;7.334;2023-05-07T08:13:39;6.95;;;5.30;;
10811;SDS011;5458;51.496;7.334;2023-05-07T08:16:05;5.25;;;4.75;;
10811;SDS011;5458;51.496;7.334;2023-05-07T08:18:31;6.43;;;5.30;;
10811;SDS011;5458;51.496;7.334;2023-05-07T08:20:56;5.72;;;5.05;;
10811;SDS011;5458;51.496;7.334;2023-05-07T08:23:22;7.88;;;5.57;;
10811;SDS011;5458;51.496;7.334;2023-05-07T08:25:48;6.47;;;5.68;;
10811;SDS011;5458;51.496;7.334;2023-05-07T08:28:14;5.80;;;4.95;;
10811;SDS011;5458;51.496;7.334;2023-05-07T08:30:40;7.05;;;4.60;;
10811;SDS011;5458;51.496;7.334;2023-05-07T08:33:06;6.68;;;6.03;;
10811;SDS011;5458;51.496;7.334;2023-05-07T08:35:33;6.30;;;5.80;;
10811;SDS011;5458;51.496;7.334;2023-05-07T08:37:59;7.43;;;6.63;;
10811;SDS011;5458;51.496;7.334;2023-05-07T08:40:24;7.80;;;6.80;;
10811;SDS011;5458;51.496;7.334;2023-05-07T08:42:51;8.18;;;7.38;;
10811;SDS011;5458;51.496;7.334;2023-05-07T08:45:18;7.38;;;6.63;;
10811;SDS011;5458;51.496;7.334;2023-05-07T08:47:46;8.35;;;7.60;;
10811;SDS011;5458;51.496;7.334;2023-05-07T08:50:15;8.00;;;7.30;;
10811;SDS011;5458;51.496;7.334;2023-05-07T08:52:41;8.38;;;7.57;;
10811;SDS011;5458;51.496;7.334;2023-05-07T08:55:07;9.27;;;8.27;;
10811;SDS011;5458;51.496;7.334;2023-05-07T08:57:34;6.95;;;6.35;;
10811;SDS011;5458;51.496;7.334;2023-05-07T09:00:00;8.48;;;7.78;;
10811;SDS011;5458;51.496;7.334;2023-05-07T09:02:26;9.25;;;8.35;;
10811;SDS011;5458;51.496;7.334;2023-05-07T09:04:52;9.10;;;8.30;;
10811;SDS011;5458;51.496;7.334;2023-05-07T09:07:18;8.60;;;7.90;;
10811;SDS011;5458;51.496;7.334;2023-05-07T09:09:45;8.50;;;7.57;;
10811;SDS011;5458;51.496;7.334;2023-05-07T09:12:11;8.70;;;7.72;;
10811;SDS011;5458;51.496;7.334;2023-05-07T09:14:37;9.90;;;8.95;;
10811;SDS011;5458;51.496;7.334;2023-05-07T09:17:05;9.25;;;8.07;;
10811;SDS011;5458;51.496;7.334;2023-05-07T09:19:30;9.70;;;8.73;;
10811;SDS011;5458;51.496;7.334;2023-05-07T09:21:59;9.73;;;8.73;;
10811;SDS011;5458;51.496;7.334;2023-05-07T09:24:30;10.18;;;8.90;;
10811;SDS011;5458;51.496;7.334;2023-05-07T09:27:00;10.18;;;8.80;;
10811;SDS011;5458;51.496;7.334;2023-05-07T09:29:27;9.77;;;8.88;;
10811;SDS011;5458;51.496;7.334;2023-05-07T09:32:03;9.90;;;8.75;;
10811;SDS011;5458;51.496;7.334;2023-05-07T09:34:33;9.82;;;8.82;;
10811;SDS011;5458;51.496;7.334;2023-05-07T09:37:03;9.52;;;8.60;;
10811;SDS011;5458;51.496;7.334;2023-05-07T09:39:42;10.18;;;9.27;;
10811;SDS011;5458;51.496;7.334;2023-05-07T09:42:09;9.90;;;9.00;;
10811;SDS011;5458;51.496;7.334;2023-05-07T09:44:36;10.65;;;9.45;;
10811;SDS011;5458;51.496;7.334;2023-05-07T09:47:05;8.73;;;7.85;;
10811;SDS011;5458;51.496;7.334;2023-05-07T09:49:35;8.35;;;7.63;;
10811;SDS011;5458;51.496;7.334;2023-05-07T09:52:02;8.95;;;6.78;;
10811;SDS011;5458;51.496;7.334;2023-05-07T09:54:31;7.28;;;6.57;;
10811;SDS011;5458;51.496;7.334;2023-05-07T09:57:02;7.60;;;6.70;;
10811;SDS011;5458;51.496;7.334;2023-05-07T09:59:29;8.43;;;6.55;;
10811;SDS011;5458;51.496;7.334;2023-05-07T10:01:58;7.97;;;6.30;;
10811;SDS011;5458;51.496;7.334;2023-05-07T10:04:25;6.65;;;5.70;;
10811;SDS011;5458;51.496;7.334;2023-05-07T10:06:51;7.00;;;6.30;;
10811;SDS011;5458;51.496;7.334;2023-05-07T10:09:17;6.70;;;6.00;;
10811;SDS011;5458;51.496;7.334;2023-05-07T10:11:43;7.32;;;6.03;;
10811;SDS011;5458;51.496;7.334;2023-05-07T10:14:09;7.35;;;5.97;;
10811;SDS011;5458;51.496;7.334;2023-05-07T10:16:36;10.48;;;6.93;;
10811;SDS011;5458;51.496;7.334;2023-05-07T10:19:02;5.72;;;5.22;;
10811;SDS011;5458;51.496;7.334;2023-05-07T10:21:29;5.80;;;5.30;;
10811;SDS011;5458;51.496;7.334;2023-05-07T10:24:00;6.68;;;6.07;;
10811;SDS011;5458;51.496;7.334;2023-05-07T10:26:42;5.15;;;4.65;;
10811;SDS011;5458;51.496;7.334;2023-05-07T10:34:58;4.68;;;4.22;;
10811;SDS011;5458;51.496;7.334;2023-05-07T10:37:26;4.00;;;3.63;;
10811;SDS011;5458;51.496;7.334;2023-05-07T10:39:52;3.40;;;3.05;;
10811;SDS011;5458;51.496;7.334;2023-05-07T10:42:18;4.40;;;3.92;;
10811;SDS011;5458;51.496;7.334;2023-05-07T10:44:43;4.95;;;4.50;;
10811;SDS011;5458;51.496;7.334;2023-05-07T10:47:13;6.35;;;5.10;;
10811;SDS011;5458;51.496;7.334;2023-05-07T10:54:45;5.38;;;4.88;;
10811;SDS011;5458;51.496;7.334;2023-05-07T10:59:56;5.13;;;4.60;;
10811;SDS011;5458;51.496;7.334;2023-05-07T11:02:21;4.93;;;3.88;;
10811;SDS011;5458;51.496;7.334;2023-05-07T11:05:47;5.93;;;4.47;;
10811;SDS011;5458;51.496;7.334;2023-05-07T11:07:57;6.85;;;6.15;;
10811;SDS011;5458;51.496;7.334;2023-05-07T11:13:15;5.55;;;4.97;;
10811;SDS011;5458;51.496;7.334;2023-05-07T11:15:45;6.43;;;5.82;;
10811;SDS011;5458;51.496;7.334;2023-05-07T11:18:15;7.03;;;6.32;;
10811;SDS011;5458;51.496;7.334;2023-05-07T11:26:09;6.38;;;5.55;;
10811;SDS011;5458;51.496;7.334;2023-05-07T11:28:37;7.03;;;5.57;;
10811;SDS011;5458;51.496;7.334;2023-05-07T11:31:03;7.65;;;6.88;;
10811;SDS011;5458;51.496;7.334;2023-05-07T11:33:30;8.85;;;6.72;;
10811;SDS011;5458;51.496;7.334;2023-05-07T11:35:56;8.50;;;5.38;;
10811;SDS011;5458;51.496;7.334;2023-05-07T11:38:23;6.70;;;6.10;;
10811;SDS011;5458;51.496;7.334;2023-05-07T11:43:15;7.72;;;6.85;;
10811;SDS011;5458;51.496;7.334;2023-05-07T11:45:41;8.75;;;6.93;;
10811;SDS011;5458;51.496;7.334;2023-05-07T11:48:07;10.75;;;7.70;;
10811;SDS011;5458;51.496;7.334;2023-05-07T11:50:32;11.32;;;7.85;;
10811;SDS011;5458;51.496;7.334;2023-05-07T11:52:58;8.80;;;7.85;;
10811;SDS011;5458;51.496;7.334;2023-05-07T11:55:24;10.35;;;9.35;;
10811;SDS011;5458;51.496;7.334;2023-05-07T11:57:51;9.68;;;8.43;;
10811;SDS011;5458;51.496;7.334;2023-05-07T12:00:17;10.07;;;9.07;;
10811;SDS011;5458;51.496;7.334;2023-05-07T12:02:43;9.75;;;8.75;;
10811;SDS011;5458;51.496;7.334;2023-05-07T12:05:10;10.90;;;8.95;;
10811;SDS011;5458;51.496;7.334;2023-05-07T12:07:36;11.10;;;9.90;;
10811;SDS011;5458;51.496;7.334;2023-05-07T12:10:07;9.70;;;8.55;;
10811;SDS011;5458;51.496;7.334;2023-05-07T12:12:39;9.43;;;7.95;;
10811;SDS011;5458;51.496;7.334;2023-05-07T12:15:06;10.15;;;9.00;;
10811;SDS011;5458;51.496;7.334;2023-05-07T12:17:33;10.55;;;9.20;;
10811;SDS011;5458;51.496;7.334;2023-05-07T12:19:58;9.02;;;8.07;;
10811;SDS011;5458;51.496;7.334;2023-05-07T12:22:25;8.20;;;7.40;;
10811;SDS011;5458;51.496;7.334;2023-05-07T12:24:57;7.80;;;7.10;;
10811;SDS011;5458;51.496;7.334;2023-05-07T12:27:23;8.20;;;6.97;;
10811;SDS011;5458;51.496;7.334;2023-05-07T12:29:49;7.53;;;6.72;;
10811;SDS011;5458;51.496;7.334;2023-05-07T12:32:19;8.65;;;6.70;;
10811;SDS011;5458;51.496;7.334;2023-05-07T12:34:47;9.63;;;8.70;;
10811;SDS011;5458;51.496;7.334;2023-05-07T12:37:15;12.15;;;7.13;;
10811;SDS011;5458;51.496;7.334;2023-05-07T12:39:44;10.82;;;5.50;;
10811;SDS011;5458;51.496;7.334;2023-05-07T12:42:16;8.23;;;4.85;;
10811;SDS011;5458;51.496;7.334;2023-05-07T12:44:45;8.38;;;5.30;;
10811;SDS011;5458;51.496;7.334;2023-05-07T12:47:11;11.65;;;7.95;;
10811;SDS011;5458;51.496;7.334;2023-05-07T12:49:37;7.32;;;6.38;;
10811;SDS011;5458;51.496;7.334;2023-05-07T12:52:03;6.80;;;5.88;;
10811;SDS011;5458;51.496;7.334;2023-05-07T12:54:30;6.93;;;5.97;;
10811;SDS011;5458;51.496;7.334;2023-05-07T12:57:10;8.73;;;5.72;;
10811;SDS011;5458;51.496;7.334;2023-05-07T12:59:41;5.80;;;4.93;;
10811;SDS011;5458;51.496;7.334;2023-05-07T13:02:08;5.40;;;4.90;;
10811;SDS011;5458;51.496;7.334;2023-05-07T13:04:34;11.70;;;5.85;;
10811;SDS011;5458;51.496;7.334;2023-05-07T13:07:00;7.88;;;4.80;;
10811;SDS011;5458;51.496;7.334;2023-05-07T13:09:26;5.88;;;4.60;;
10811;SDS011;5458;51.496;7.334;2023-05-07T13:11:54;4.93;;;4.43;;
10811;SDS011;5458;51.496;7.334;2023-05-07T13:14:20;7.68;;;4.80;;
10811;SDS011;5458;51.496;7.334;2023-05-07T13:16:46;5.30;;;4.88;;
10811;SDS011;5458;51.496;7.334;2023-05-07T13:19:12;6.32;;;5.50;;
10811;SDS011;5458;51.496;7.334;2023-05-07T13:21:37;6.55;;;5.60;;
10811;SDS011;5458;51.496;7.334;2023-05-07T13:24:03;7.47;;;6.70;;
10811;SDS011;5458;51.496;7.334;2023-05-07T13:26:29;8.43;;;6.65;;
10811;SDS011;5458;51.496;7.334;2023-05-07T13:28:55;6.43;;;5.75;;
10811;SDS011;5458;51.496;7.334;2023-05-07T13:31:21;9.75;;;5.68;;
10811;SDS011;5458;51.496;7.334;2023-05-07T13:33:47;5.50;;;5.00;;
10811;SDS011;5458;51.496;7.334;2023-05-07T13:36:12;7.45;;;5.63;;
10811;SDS011;5458;51.496;7.334;2023-05-07T13:38:41;5.78;;;5.20;;
10811;SDS011;5458;51.496;7.334;2023-05-07T13:41:06;6.32;;;5.25;;
10811;SDS011;5458;51.496;7.334;2023-05-07T13:43:32;6.05;;;5.47;;
10811;SDS011;5458;51.496;7.334;2023-05-07T13:45:58;7.45;;;6.65;;
10811;SDS011;5458;51.496;7.334;2023-05-07T13:48:25;6.40;;;5.30;;
10811;SDS011;5458;51.496;7.334;2023-05-07T13:50:50;5.82;;;5.32;;
10811;SDS011;5458;51.496;7.334;2023-05-07T13:53:16;6.43;;;5.78;;
10811;SDS011;5458;51.496;7.334;2023-05-07T13:55:43;6.28;;;5.07;;
10811;SDS011;5458;51.496;7.334;2023-05-07T13:58:09;6.57;;;5.45;;
10811;SDS011;5458;51.496;7.334;2023-05-07T14:00:35;6.38;;;5.78;;
10811;SDS011;5458;51.496;7.334;2023-05-07T14:03:00;5.30;;;4.80;;
10811;SDS011;5458;51.496;7.334;2023-05-07T14:05:26;5.13;;;4.63;;
10811;SDS011;5458;51.496;7.334;2023-05-07T14:07:53;6.47;;;4.85;;
10811;SDS011;5458;51.496;7.334;2023-05-07T14:10:22;4.03;;;3.67;;
10811;SDS011;5458;51.496;7.334;2023-05-07T14:12:47;4.35;;;3.90;;
10811;SDS011;5458;51.496;7.334;2023-05-07T14:15:13;6.05;;;4.60;;
10811;SDS011;5458;51.496;7.334;2023-05-07T14:17:39;6.97;;;4.47;;
10811;SDS011;5458;51.496;7.334;2023-05-07T14:20:04;5.78;;;4.95;;
10811;SDS011;5458;51.496;7.334;2023-05-07T14:22:31;5.38;;;4.35;;
10811;SDS011;5458;51.496;7.334;2023-05-07T14:24:57;7.03;;;5.38;;
10811;SDS011;5458;51.496;7.334;2023-05-07T14:27:23;5.10;;;4.60;;
10811;SDS011;5458;51.496;7.334;2023-05-07T14:29:48;5.55;;;5.03;;
10811;SDS011;5458;51.496;7.334;2023-05-07T14:32:16;6.43;;;5.40;;
10811;SDS011;5458;51.496;7.334;2023-05-07T14:34:43;5.22;;;4.72;;
10811;SDS011;5458;51.496;7.334;2023-05-07T14:37:09;5.55;;;4.93;;
10811;SDS011;5458;51.496;7.334;2023-05-07T14:39:35;6.85;;;6.15;;
10811;SDS011;5458;51.496;7.334;2023-05-07T14:42:00;6.05;;;5.45;;
10811;SDS011;5458;51.496;7.334;2023-05-07T14:44:26;6.35;;;5.82;;
10811;SDS011;5458;51.496;7.334;2023-05-07T14:46:52;7.85;;;6.55;;
10811;SDS011;5458;51.496;7.334;2023-05-07T14:49:17;6.72;;;6.13;;
10811;SDS011;5458;51.496;7.334;2023-05-07T14:51:44;6.90;;;6.07;;
10811;SDS011;5458;51.496;7.334;2023-05-07T14:54:10;7.22;;;6.53;;
10811;SDS011;5458;51.496;7.334;2023-05-07T14:56:36;7.85;;;6.40;;
10811;SDS011;5458;51.496;7.334;2023-05-07T14:59:02;6.95;;;6.22;;
10811;SDS011;5458;51.496;7.334;2023-05-07T15:01:28;7.65;;;6.95;;
10811;SDS011;5458;51.496;7.334;2023-05-07T15:03:54;7.25;;;6.55;;
10811;SDS011;5458;51.496;7.334;2023-05-07T15:06:20;6.68;;;6.07;;
10811;SDS011;5458;51.496;7.334;2023-05-07T15:08:46;8.23;;;7.38;;
10811;SDS011;5458;51.496;7.334;2023-05-07T15:11:13;7.93;;;6.43;;